Ship Status Report: callsign BATFR34

sailwx.info

Track history (hours):
 
Tides and Currents Weather Stations Pressure Air Temp Water Temp Dewpoint Dewpoint Depression Visibility Wind Speed Wind Dir Waves Ship Positions

Callsign BATFR34 (name unknown)

Last reported at 2017-Jan-21 12:00 UTC. Time now 2017-Feb-24 05:55 UTC.
Position N 47°48' W 006°24'.
Warning: this ship's position is 33 days out of date.

Wind from 170 at 12 knots

Barometer 1024.2 mb
Air temperature 25.9 ° C
Water temperature 13.2 ° C

Date/timePositionNaut miles runAvg speedWind from/ knotsBaromVisibWave heightAir tempDewpointWater temp
2017-Jan-21 12:00N 47°48' W 006°24'6 6.0 170 / 121024.2 25.9 13.2
2017-Jan-21 11:00N 47°42' W 006°24'7 3.6 150 / 131024.6 1.7 13.2
2017-Jan-21 09:00N 47°36' W 006°30'0 0.0 150 / 121024.4 5.4 3.7 13.2
2017-Jan-21 08:00N 47°36' W 006°30'4 4.0 140 / 91024.3 -16.8 13.2
2017-Jan-21 07:00N 47°36' W 006°24'0 0.0 140 / 61024.4 13.2
2017-Jan-21 06:00N 47°36' W 006°24'7 7.2 130 / 111024.2 13.0
2017-Jan-21 05:00N 47°30' W 006°18'0 0.0 110 / 101024.6 -23.4 13.0
2017-Jan-21 04:00N 47°30' W 006°18'4 4.1 130 / 101025.1 13.2
2017-Jan-21 03:00N 47°30' W 006°12'6 6.0 130 / 71025.4 -16.7 13.0
2017-Jan-21 02:00N 47°24' W 006°12'0 0.0 120 / 81025.4 -14.6 13.0
2017-Jan-21 01:00N 47°24' W 006°12'0 0.0 100 / 61025.7 13.0
2017-Jan-21 00:00N 47°24' W 006°12'4 4.1 110 / 71026.0 12.9
2017-Jan-20 23:00N 47°24' W 006°06'0 0.0 100 / 61026.1 13.2
2017-Jan-20 22:00N 47°24' W 006°06'0 0.0 070 / 101026.0 13.2
2017-Jan-20 21:00N 47°24' W 006°06'4 4.1 060 / 121026.2 12.9
2017-Jan-20 20:00N 47°24' W 006°12'6 6.0 070 / 81026.4 12.9
2017-Jan-20 19:00N 47°30' W 006°12'6 3.0 040 / 61026.6 13.2
2017-Jan-20 17:00N 47°24' W 006°12'0 0.0 040 / 51026.6 12.9
2017-Jan-20 16:00N 47°24' W 006°12'7 7.2 040 / 41026.5 12.9
2017-Jan-20 15:00N 47°18' W 006°06'0 0.0 040 / 61026.4 12.9
2017-Jan-20 14:00N 47°18' W 006°06'4 4.1 050 / 71026.8 12.9
2017-Jan-20 13:00N 47°18' W 006°00'0 0.0 070 / 61027.4 12.9
2017-Jan-20 12:00N 47°18' W 006°00'4 4.1 080 / 71028.1 13.0
2017-Jan-20 11:00N 47°18' W 005°54'4 4.1 090 / 61028.7 12.9
2017-Jan-20 10:00N 47°18' W 006°00'0 0.0 090 / 81028.6 13.0
2017-Jan-20 09:00N 47°18' W 006°00'4 4.1 100 / 71028.5 13.2
2017-Jan-20 08:00N 47°18' W 006°06'0 0.0 090 / 71028.2 13.0
2017-Jan-20 07:00N 47°18' W 006°06'0 0.0 100 / 91028.2 13.0
2017-Jan-20 06:00N 47°18' W 006°06'0 0.0 100 / 81028.3 13.2
2017-Jan-20 05:00N 47°18' W 006°06'4 4.1 120 / 91028.7 12.9
2017-Jan-20 04:00N 47°18' W 006°00'0 0.0 090 / 101028.8 12.9
2017-Jan-20 03:00N 47°18' W 006°00'0 0.0 090 / 91029.1 12.9
2017-Jan-20 02:00N 47°18' W 006°00'4 2.0 120 / 81029.1 12.9
2017-Jan-20 00:00N 47°18' W 006°06'7 3.6 130 / 131029.2 12.9
2017-Jan-19 22:00N 47°24' W 006°12'0 0.0 090 / 161029.4 -14.1 12.9
2017-Jan-19 21:00N 47°24' W 006°12'4 4.1 100 / 171029.4 -9.0 13.0
2017-Jan-19 20:00N 47°24' W 006°18'0 0.0 090 / 151029.3 22.7 13.0
2017-Jan-19 19:00N 47°24' W 006°18'0 0.0 090 / 151028.8 24.7 13.0
2017-Jan-19 17:00N 47°24' W 006°18'0 0.0 080 / 181028.6 32.9 13.0
2017-Jan-19 16:00N 47°24' W 006°18'4 4.1 070 / 191028.5 25.4 13.0
2017-Jan-19 15:00N 47°24' W 006°12'6 6.0 060 / 181029.1 2.2 25.2 13.0
2017-Jan-19 14:00N 47°18' W 006°12'4 4.1 060 / 191029.6 25.7 12.9
2017-Jan-19 13:00N 47°18' W 006°06'0 0.0 050 / 201030.4 31.2 12.9
2017-Jan-19 12:00N 47°18' W 006°06'4 4.1 060 / 181030.5 24.9 12.9
2017-Jan-19 11:00N 47°18' W 006°00'0 0.0 070 / 201031.0 25.2 13.2
2017-Jan-19 10:00N 47°18' W 006°00'4 4.1 060 / 221031.5 34.0 13.0
2017-Jan-19 09:00N 47°18' W 005°54'0 0.0 080 / 161031.3 24.4 13.0
2017-Jan-19 08:00N 47°18' W 005°54'4 4.1 060 / 181031.0 23.9 13.0
2017-Jan-19 07:00N 47°18' W 006°00'4 2.0 040 / 191030.8 23.5 13.2
2017-Jan-19 05:00N 47°18' W 006°06'0 0.0 060 / 181031.3 23.2 13.0
2017-Jan-19 03:00N 47°18' W 006°06'0 0.0 070 / 191031.8 28.7 12.9
2017-Jan-19 02:00N 47°18' W 006°06'4 4.1 060 / 181031.5 23.4 12.9
2017-Jan-19 01:00N 47°18' W 006°00'4 4.1 060 / 191031.7 24.4 13.0
2017-Jan-19 00:00N 47°18' W 005°54'0 0.0 050 / 211031.9 24.2 12.9
2017-Jan-18 23:00N 47°18' W 005°54'4 4.1 050 / 161032.7 23.9 13.0
2017-Jan-18 22:00N 47°18' W 005°48'4 4.1 080 / 151032.2 23.7 13.0
2017-Jan-18 21:00N 47°18' W 005°54'0 0.0 080 / 191032.3 23.9 13.0
2017-Jan-18 20:00N 47°18' W 005°54'4 4.1 060 / 201032.2 24.4 13.2
2017-Jan-18 19:00N 47°18' W 006°00'0 0.0 040 / 241032.3 23.4 12.9
2017-Jan-18 18:00N 47°18' W 006°00'4 4.1 030 / 201032.3 24.2 13.0
2017-Jan-18 17:00N 47°18' W 006°06'0 0.0 020 / 171032.5 23.4 13.0
2017-Jan-18 16:00N 47°18' W 006°06'7 7.2 040 / 211032.8 22.7 12.9
2017-Jan-18 15:00N 47°24' W 006°12'7 7.2 070 / 151033.0 2.2 23.0 13.2
2017-Jan-18 14:00N 47°18' W 006°06'0 0.0 060 / 171033.3 22.9 13.0
2017-Jan-18 13:00N 47°18' W 006°06'4 4.1 040 / 141033.7 21.5 12.9
2017-Jan-18 12:00N 47°18' W 006°00'4 2.0 060 / 171033.8 2.2 21.7 12.9
2017-Jan-18 10:00N 47°18' W 005°54'4 4.1 050 / 191034.2 23.2 13.0
2017-Jan-18 09:00N 47°18' W 005°48'0 0.0 060 / 121034.0 22.0 13.2
2017-Jan-18 08:00N 47°18' W 005°48'4 4.1 080 / 191033.6 21.4 13.2
2017-Jan-18 07:00N 47°18' W 005°54'0 0.0 060 / 201033.2 21.2 13.0
2017-Jan-18 06:00N 47°18' W 005°54'4 2.0 050 / 191033.3 18.7 12.9
2017-Jan-18 04:00N 47°18' W 006°00'4 4.1 090 / 121033.9 22.0 12.9
2017-Jan-18 03:00N 47°18' W 005°54'4 4.1 080 / 121034.4 23.2 12.9
2017-Jan-18 02:00N 47°18' W 005°48'4 4.1 080 / 131034.4 22.7 12.9
2017-Jan-18 01:00N 47°18' W 005°42'6 3.0 080 / 101034.6 22.7 12.9
2017-Jan-17 23:00N 47°24' W 005°42'0 0.0 130 / 101034.5 20.7 12.9
2017-Jan-17 22:00N 47°24' W 005°42'6 6.0 090 / 111034.5 22.4 12.9
2017-Jan-17 21:00N 47°30' W 005°42'0 0.0 120 / 111034.7 21.4 12.9
2017-Jan-17 20:00N 47°30' W 005°42'4 4.1 100 / 121034.4 22.0 13.0
2017-Jan-17 19:00N 47°30' W 005°48'4 4.1 080 / 111034.1 21.7 13.2
2017-Jan-17 18:00N 47°30' W 005°54'0 0.0 090 / 111033.6 24.4 13.2
2017-Jan-17 17:00N 47°30' W 005°54'6 6.0 100 / 121033.4 23.9 13.2
2017-Jan-17 16:00N 47°24' W 005°54'4 2.0 120 / 121033.3 27.7 13.2
2017-Jan-17 14:00N 47°24' W 005°48'0 0.0 120 / 131033.1 25.7 13.2
2017-Jan-17 13:00N 47°24' W 005°48'6 6.0 110 / 161033.1 26.0 13.2
2017-Jan-17 12:00N 47°30' W 005°48'0 0.0 110 / 141033.0 26.9 13.2
2017-Jan-17 11:00N 47°30' W 005°48'7 7.2 120 / 181033.0 27.0 13.2
2017-Jan-17 10:00N 47°36' W 005°42'0 0.0 120 / 161032.6 27.4 13.0
2017-Jan-17 09:00N 47°36' W 005°42'0 0.0 090 / 151032.1 2.2 28.2 13.0
2017-Jan-17 08:00N 47°36' W 005°42'0 0.0 120 / 131031.2 27.4 13.0
2017-Jan-17 07:00N 47°36' W 005°42'4 4.0 130 / 111030.7 28.4 13.2
2017-Jan-17 06:00N 47°36' W 005°48'6 6.0 060 / 111030.1 28.7 13.2
2017-Jan-17 05:00N 47°30' W 005°48'0 0.0 070 / 121030.0 28.7 13.2
2017-Jan-17 04:00N 47°30' W 005°48'6 6.0 070 / 111030.1 28.4 13.2
2017-Jan-17 03:00N 47°24' W 005°48'4 4.1 020 / 131030.3 28.2 13.0
2017-Jan-17 02:00N 47°24' W 005°42'4 4.1 040 / 151030.4 37.0 13.2
2017-Jan-17 01:00N 47°24' W 005°36'6 3.0 030 / 31030.7 31.7 13.2
2017-Jan-16 23:00N 47°30' W 005°36'6 6.0 040 / 151030.6 27.4 13.0
2017-Jan-16 22:00N 47°36' W 005°36'0 0.0 020 / 121030.5 27.5 13.0
2017-Jan-16 21:00N 47°36' W 005°36'7 7.2 1030.4 27.4 13.0
2017-Jan-16 20:00N 47°42' W 005°30'4 2.0 1029.8 26.9 12.9
2017-Jan-16 18:00N 47°42' W 005°24'6 6.0 020 / 171029.3 20.9 12.9
2017-Jan-16 17:00N 47°36' W 005°24'4 4.0 030 / 171029.0 20.4 12.9
2017-Jan-16 16:00N 47°36' W 005°18'0 0.0 010 / 161029.1 19.2 12.9
2017-Jan-16 15:00N 47°36' W 005°18'4 4.0 010 / 161029.2 17.5 12.9
2017-Jan-16 14:00N 47°36' W 005°12'1010.1 360 / 201029.3 17.7 12.9
2017-Jan-16 13:00N 47°42' W 005°00'8 8.1 350 / 201029.2 17.2 12.9
2017-Jan-16 12:00N 47°42' W 004°48'   350 / 201029.4 16.4 9.412.7
2017-Jan-11 17:00N 48°48' W 006°18'0 0.0 310 / 181023.2 9.0 12.9
2017-Jan-11 16:00N 48°48' W 006°18'0 0.0 340 / 141022.7 9.9 8.212.9
2017-Jan-11 15:00N 48°48' W 006°18'6 6.0 360 / 181022.7 2.2 9.7 12.9
2017-Jan-11 14:00N 48°42' W 006°18'0 0.0 350 / 181022.5 9.9 13.0
2017-Jan-11 13:00N 48°42' W 006°18'6 6.0 330 / 161022.4 7.7 13.0
2017-Jan-11 12:00N 48°36' W 006°18'   310 / 221021.7 2.2 10.0 13.0
Track history (hours):
 
Tides and Currents Weather Stations Pressure Air Temp Water Temp Dewpoint Dewpoint Depression Visibility Wind Speed Wind Dir Waves Ship Positions

Callsign BATFR34 (name unknown)

Last reported at 2017-Jan-21 12:00 UTC. Time now 2017-Feb-24 05:55 UTC.
Position N 47°48' W 006°24'.
Warning: this ship's position is 33 days out of date.

Wind from 170 at 12 knots

Barometer 1024.2 mb
Air temperature 25.9 ° C
Water temperature 13.2 ° C

Date/timePositionNaut miles runAvg speedWind from/ knotsBaromVisibWave heightAir tempDewpointWater temp
2017-Jan-21 12:00N 47°48' W 006°24'6 6.0 170 / 121024.2 25.9 13.2
2017-Jan-21 11:00N 47°42' W 006°24'7 3.6 150 / 131024.6 1.7 13.2
2017-Jan-21 09:00N 47°36' W 006°30'0 0.0 150 / 121024.4 5.4 3.7 13.2
2017-Jan-21 08:00N 47°36' W 006°30'4 4.0 140 / 91024.3 -16.8 13.2
2017-Jan-21 07:00N 47°36' W 006°24'0 0.0 140 / 61024.4 13.2
2017-Jan-21 06:00N 47°36' W 006°24'7 7.2 130 / 111024.2 13.0
2017-Jan-21 05:00N 47°30' W 006°18'0 0.0 110 / 101024.6 -23.4 13.0
2017-Jan-21 04:00N 47°30' W 006°18'4 4.1 130 / 101025.1 13.2
2017-Jan-21 03:00N 47°30' W 006°12'6 6.0 130 / 71025.4 -16.7 13.0
2017-Jan-21 02:00N 47°24' W 006°12'0 0.0 120 / 81025.4 -14.6 13.0
2017-Jan-21 01:00N 47°24' W 006°12'0 0.0 100 / 61025.7 13.0
2017-Jan-21 00:00N 47°24' W 006°12'4 4.1 110 / 71026.0 12.9
2017-Jan-20 23:00N 47°24' W 006°06'0 0.0 100 / 61026.1 13.2
2017-Jan-20 22:00N 47°24' W 006°06'0 0.0 070 / 101026.0 13.2
2017-Jan-20 21:00N 47°24' W 006°06'4 4.1 060 / 121026.2 12.9
2017-Jan-20 20:00N 47°24' W 006°12'6 6.0 070 / 81026.4 12.9
2017-Jan-20 19:00N 47°30' W 006°12'6 3.0 040 / 61026.6 13.2
2017-Jan-20 17:00N 47°24' W 006°12'0 0.0 040 / 51026.6 12.9
2017-Jan-20 16:00N 47°24' W 006°12'7 7.2 040 / 41026.5 12.9
2017-Jan-20 15:00N 47°18' W 006°06'0 0.0 040 / 61026.4 12.9
2017-Jan-20 14:00N 47°18' W 006°06'4 4.1 050 / 71026.8 12.9
2017-Jan-20 13:00N 47°18' W 006°00'0 0.0 070 / 61027.4 12.9
2017-Jan-20 12:00N 47°18' W 006°00'4 4.1 080 / 71028.1 13.0
2017-Jan-20 11:00N 47°18' W 005°54'4 4.1 090 / 61028.7 12.9
2017-Jan-20 10:00N 47°18' W 006°00'0 0.0 090 / 81028.6 13.0
2017-Jan-20 09:00N 47°18' W 006°00'4 4.1 100 / 71028.5 13.2
2017-Jan-20 08:00N 47°18' W 006°06'0 0.0 090 / 71028.2 13.0
2017-Jan-20 07:00N 47°18' W 006°06'0 0.0 100 / 91028.2 13.0
2017-Jan-20 06:00N 47°18' W 006°06'0 0.0 100 / 81028.3 13.2
2017-Jan-20 05:00N 47°18' W 006°06'4 4.1 120 / 91028.7 12.9
2017-Jan-20 04:00N 47°18' W 006°00'0 0.0 090 / 101028.8 12.9
2017-Jan-20 03:00N 47°18' W 006°00'0 0.0 090 / 91029.1 12.9
2017-Jan-20 02:00N 47°18' W 006°00'4 2.0 120 / 81029.1 12.9
2017-Jan-20 00:00N 47°18' W 006°06'7 3.6 130 / 131029.2 12.9
2017-Jan-19 22:00N 47°24' W 006°12'0 0.0 090 / 161029.4 -14.1 12.9
2017-Jan-19 21:00N 47°24' W 006°12'4 4.1 100 / 171029.4 -9.0 13.0
2017-Jan-19 20:00N 47°24' W 006°18'0 0.0 090 / 151029.3 22.7 13.0
2017-Jan-19 19:00N 47°24' W 006°18'0 0.0 090 / 151028.8 24.7 13.0
2017-Jan-19 17:00N 47°24' W 006°18'0 0.0 080 / 181028.6 32.9 13.0
2017-Jan-19 16:00N 47°24' W 006°18'4 4.1 070 / 191028.5 25.4 13.0
2017-Jan-19 15:00N 47°24' W 006°12'6 6.0 060 / 181029.1 2.2 25.2 13.0
2017-Jan-19 14:00N 47°18' W 006°12'4 4.1 060 / 191029.6 25.7 12.9
2017-Jan-19 13:00N 47°18' W 006°06'0 0.0 050 / 201030.4 31.2 12.9
2017-Jan-19 12:00N 47°18' W 006°06'4 4.1 060 / 181030.5 24.9 12.9
2017-Jan-19 11:00N 47°18' W 006°00'0 0.0 070 / 201031.0 25.2 13.2
2017-Jan-19 10:00N 47°18' W 006°00'4 4.1 060 / 221031.5 34.0 13.0
2017-Jan-19 09:00N 47°18' W 005°54'0 0.0 080 / 161031.3 24.4 13.0
2017-Jan-19 08:00N 47°18' W 005°54'4 4.1 060 / 181031.0 23.9 13.0
2017-Jan-19 07:00N 47°18' W 006°00'4 2.0 040 / 191030.8 23.5 13.2
2017-Jan-19 05:00N 47°18' W 006°06'0 0.0 060 / 181031.3 23.2 13.0
2017-Jan-19 03:00N 47°18' W 006°06'0 0.0 070 / 191031.8 28.7 12.9
2017-Jan-19 02:00N 47°18' W 006°06'4 4.1 060 / 181031.5 23.4 12.9
2017-Jan-19 01:00N 47°18' W 006°00'4 4.1 060 / 191031.7 24.4 13.0
2017-Jan-19 00:00N 47°18' W 005°54'0 0.0 050 / 211031.9 24.2 12.9
2017-Jan-18 23:00N 47°18' W 005°54'4 4.1 050 / 161032.7 23.9 13.0
2017-Jan-18 22:00N 47°18' W 005°48'4 4.1 080 / 151032.2 23.7 13.0
2017-Jan-18 21:00N 47°18' W 005°54'0 0.0 080 / 191032.3 23.9 13.0
2017-Jan-18 20:00N 47°18' W 005°54'4 4.1 060 / 201032.2 24.4 13.2
2017-Jan-18 19:00N 47°18' W 006°00'0 0.0 040 / 241032.3 23.4 12.9
2017-Jan-18 18:00N 47°18' W 006°00'4 4.1 030 / 201032.3 24.2 13.0
2017-Jan-18 17:00N 47°18' W 006°06'0 0.0 020 / 171032.5 23.4 13.0
2017-Jan-18 16:00N 47°18' W 006°06'7 7.2 040 / 211032.8 22.7 12.9
2017-Jan-18 15:00N 47°24' W 006°12'7 7.2 070 / 151033.0 2.2 23.0 13.2
2017-Jan-18 14:00N 47°18' W 006°06'0 0.0 060 / 171033.3 22.9 13.0
2017-Jan-18 13:00N 47°18' W 006°06'4 4.1 040 / 141033.7 21.5 12.9
2017-Jan-18 12:00N 47°18' W 006°00'4 2.0 060 / 171033.8 2.2 21.7 12.9
2017-Jan-18 10:00N 47°18' W 005°54'4 4.1 050 / 191034.2 23.2 13.0
2017-Jan-18 09:00N 47°18' W 005°48'0 0.0 060 / 121034.0 22.0 13.2
2017-Jan-18 08:00N 47°18' W 005°48'4 4.1 080 / 191033.6 21.4 13.2
2017-Jan-18 07:00N 47°18' W 005°54'0 0.0 060 / 201033.2 21.2 13.0
2017-Jan-18 06:00N 47°18' W 005°54'4 2.0 050 / 191033.3 18.7 12.9
2017-Jan-18 04:00N 47°18' W 006°00'4 4.1 090 / 121033.9 22.0 12.9
2017-Jan-18 03:00N 47°18' W 005°54'4 4.1 080 / 121034.4 23.2 12.9
2017-Jan-18 02:00N 47°18' W 005°48'4 4.1 080 / 131034.4 22.7 12.9
2017-Jan-18 01:00N 47°18' W 005°42'6 3.0 080 / 101034.6 22.7 12.9
2017-Jan-17 23:00N 47°24' W 005°42'0 0.0 130 / 101034.5 20.7 12.9
2017-Jan-17 22:00N 47°24' W 005°42'6 6.0 090 / 111034.5 22.4 12.9
2017-Jan-17 21:00N 47°30' W 005°42'0 0.0 120 / 111034.7 21.4 12.9
2017-Jan-17 20:00N 47°30' W 005°42'4 4.1 100 / 121034.4 22.0 13.0
2017-Jan-17 19:00N 47°30' W 005°48'4 4.1 080 / 111034.1 21.7 13.2
2017-Jan-17 18:00N 47°30' W 005°54'0 0.0 090 / 111033.6 24.4 13.2
2017-Jan-17 17:00N 47°30' W 005°54'6 6.0 100 / 121033.4 23.9 13.2
2017-Jan-17 16:00N 47°24' W 005°54'4 2.0 120 / 121033.3 27.7 13.2
2017-Jan-17 14:00N 47°24' W 005°48'0 0.0 120 / 131033.1 25.7 13.2
2017-Jan-17 13:00N 47°24' W 005°48'6 6.0 110 / 161033.1 26.0 13.2
2017-Jan-17 12:00N 47°30' W 005°48'0 0.0 110 / 141033.0 26.9 13.2
2017-Jan-17 11:00N 47°30' W 005°48'7 7.2 120 / 181033.0 27.0 13.2
2017-Jan-17 10:00N 47°36' W 005°42'0 0.0 120 / 161032.6 27.4 13.0
2017-Jan-17 09:00N 47°36' W 005°42'0 0.0 090 / 151032.1 2.2 28.2 13.0
2017-Jan-17 08:00N 47°36' W 005°42'0 0.0 120 / 131031.2 27.4 13.0
2017-Jan-17 07:00N 47°36' W 005°42'4 4.0 130 / 111030.7 28.4 13.2
2017-Jan-17 06:00N 47°36' W 005°48'6 6.0 060 / 111030.1 28.7 13.2
2017-Jan-17 05:00N 47°30' W 005°48'0 0.0 070 / 121030.0 28.7 13.2
2017-Jan-17 04:00N 47°30' W 005°48'6 6.0 070 / 111030.1 28.4 13.2
2017-Jan-17 03:00N 47°24' W 005°48'4 4.1 020 / 131030.3 28.2 13.0
2017-Jan-17 02:00N 47°24' W 005°42'4 4.1 040 / 151030.4 37.0 13.2
2017-Jan-17 01:00N 47°24' W 005°36'6 3.0 030 / 31030.7 31.7 13.2
2017-Jan-16 23:00N 47°30' W 005°36'6 6.0 040 / 151030.6 27.4 13.0
2017-Jan-16 22:00N 47°36' W 005°36'0 0.0 020 / 121030.5 27.5 13.0
2017-Jan-16 21:00N 47°36' W 005°36'7 7.2 1030.4 27.4 13.0
2017-Jan-16 20:00N 47°42' W 005°30'4 2.0 1029.8 26.9 12.9
2017-Jan-16 18:00N 47°42' W 005°24'6 6.0 020 / 171029.3 20.9 12.9
2017-Jan-16 17:00N 47°36' W 005°24'4 4.0 030 / 171029.0 20.4 12.9
2017-Jan-16 16:00N 47°36' W 005°18'0 0.0 010 / 161029.1 19.2 12.9
2017-Jan-16 15:00N 47°36' W 005°18'4 4.0 010 / 161029.2 17.5 12.9
2017-Jan-16 14:00N 47°36' W 005°12'1010.1 360 / 201029.3 17.7 12.9
2017-Jan-16 13:00N 47°42' W 005°00'8 8.1 350 / 201029.2 17.2 12.9
2017-Jan-16 12:00N 47°42' W 004°48'   350 / 201029.4 16.4 9.412.7
2017-Jan-11 17:00N 48°48' W 006°18'0 0.0 310 / 181023.2 9.0 12.9
2017-Jan-11 16:00N 48°48' W 006°18'0 0.0 340 / 141022.7 9.9 8.212.9
2017-Jan-11 15:00N 48°48' W 006°18'6 6.0 360 / 181022.7 2.2 9.7 12.9
2017-Jan-11 14:00N 48°42' W 006°18'0 0.0 350 / 181022.5 9.9 13.0
2017-Jan-11 13:00N 48°42' W 006°18'6 6.0 330 / 161022.4 7.7 13.0
2017-Jan-11 12:00N 48°36' W 006°18'   310 / 221021.7 2.2 10.0 13.0

Dump ship's entire track history